createdAt,value
2016-12-03T00:00:04.349Z,0
2016-12-03T00:01:04.329Z,0
2016-12-03T00:02:04.310Z,0
2016-12-03T00:03:04.510Z,0
2016-12-03T00:04:04.279Z,0
2016-12-03T00:05:03.948Z,0
2016-12-03T00:06:04.670Z,0
2016-12-03T00:07:04.228Z,0
2016-12-03T00:08:04.206Z,0
2016-12-03T00:09:04.400Z,0
2016-12-03T00:10:03.559Z,0
2016-12-03T00:11:03.846Z,0
2016-12-03T00:12:03.521Z,0
2016-12-03T00:13:03.820Z,0
2016-12-03T00:14:04.118Z,0
2016-12-03T00:15:03.779Z,0
2016-12-03T00:16:04.081Z,0
2016-12-03T00:17:03.746Z,0
2016-12-03T00:18:03.728Z,0
2016-12-03T00:19:18.812Z,0
2016-12-03T00:20:03.693Z,0
2016-12-03T00:21:03.999Z,0
2016-12-03T00:22:03.668Z,0
2016-12-03T00:23:03.993Z,0
2016-12-03T00:24:03.949Z,0
2016-12-03T00:25:03.604Z,0
2016-12-03T00:26:03.645Z,0
2016-12-03T00:27:03.894Z,0
2016-12-03T00:28:03.608Z,0
2016-12-03T00:29:03.227Z,0
2016-12-03T00:30:03.850Z,0
2016-12-03T00:31:03.516Z,0
2016-12-03T00:32:03.491Z,0
2016-12-03T00:33:03.788Z,0
2016-12-03T00:34:03.775Z,0
2016-12-03T00:35:03.760Z,0
2016-12-03T00:36:03.424Z,0
2016-12-03T00:37:03.427Z,0
2016-12-03T00:38:03.391Z,0
2016-12-03T00:39:03.693Z,0
2016-12-03T00:40:03.701Z,0
2016-12-03T00:41:03.880Z,0
2016-12-03T00:42:03.636Z,0
2016-12-03T00:43:03.677Z,0
2016-12-03T00:44:03.611Z,0
2016-12-03T00:45:03.633Z,0
2016-12-03T00:46:03.260Z,0
2016-12-03T00:47:03.249Z,0
2016-12-03T00:48:03.539Z,0
2016-12-03T00:49:03.522Z,0
2016-12-03T00:50:03.513Z,0
2016-12-03T00:51:03.489Z,0
2016-12-03T00:52:03.166Z,0
2016-12-03T00:53:03.141Z,0
2016-12-03T00:54:03.439Z,0
2016-12-03T00:55:03.124Z,0
2016-12-03T00:56:03.093Z,0
2016-12-03T00:57:03.388Z,0
2016-12-03T00:58:03.375Z,0
2016-12-03T00:59:03.356Z,0
2016-12-03T01:00:03.340Z,0
2016-12-03T01:01:03.325Z,0
2016-12-03T01:02:03.308Z,0
2016-12-03T01:03:02.970Z,0
2016-12-03T01:04:03.282Z,0
2016-12-03T01:05:03.255Z,0
2016-12-03T01:06:03.244Z,0
2016-12-03T01:07:03.224Z,0
2016-12-03T01:08:03.212Z,0
2016-12-03T01:09:03.404Z,0
2016-12-03T01:10:03.164Z,0
2016-12-03T01:11:03.157Z,0
2016-12-03T01:12:03.146Z,0
2016-12-03T01:13:02.809Z,0
2016-12-03T01:14:03.106Z,0
2016-12-03T01:15:03.144Z,0
2016-12-03T01:16:02.753Z,0
2016-12-03T01:17:03.073Z,0
2016-12-03T01:18:02.723Z,0
2016-12-03T01:19:02.709Z,0
2016-12-03T01:20:02.694Z,0
2016-12-03T01:21:03.199Z,0
2016-12-03T01:22:03.030Z,0
2016-12-03T01:23:03.004Z,0
2016-12-03T01:24:02.934Z,0
2016-12-03T01:25:02.604Z,0
2016-12-03T01:26:02.582Z,0
2016-12-03T01:27:02.895Z,0
2016-12-03T01:28:02.554Z,0
2016-12-03T01:29:02.866Z,0
2016-12-03T01:30:02.519Z,0
2016-12-03T01:31:02.502Z,0
2016-12-03T01:32:02.805Z,0
2016-12-03T01:33:02.464Z,0
2016-12-03T01:34:02.769Z,0
2016-12-03T01:35:02.775Z,0
2016-12-03T01:36:02.096Z,0
2016-12-03T01:37:02.089Z,0
2016-12-03T01:38:02.384Z,0
2016-12-03T01:39:02.366Z,0
2016-12-03T01:40:02.351Z,0
2016-12-03T01:41:02.656Z,0
2016-12-03T01:42:02.661Z,0
2016-12-03T01:43:02.616Z,0
2016-12-03T01:44:02.595Z,0
2016-12-03T01:45:02.590Z,0
2016-12-03T01:46:02.246Z,0
2016-12-03T01:47:02.581Z,0
2016-12-03T01:48:02.530Z,0
2016-12-03T01:49:02.514Z,0
2016-12-03T01:50:02.185Z,0
2016-12-03T01:51:02.484Z,0
2016-12-03T01:52:02.477Z,0
2016-12-03T01:53:02.456Z,0
2016-12-03T01:54:02.441Z,0
2016-12-03T01:55:02.412Z,0
2016-12-03T01:56:02.394Z,0
2016-12-03T01:57:02.387Z,0
2016-12-03T01:58:02.356Z,0
2016-12-03T01:59:02.028Z,0
2016-12-03T02:00:02.011Z,0
2016-12-03T02:01:02.310Z,0
2016-12-03T02:02:01.972Z,0
2016-12-03T02:03:02.271Z,0
2016-12-03T02:04:01.938Z,0
2016-12-03T02:05:01.927Z,0
2016-12-03T02:06:02.232Z,0
2016-12-03T02:07:02.206Z,0
2016-12-03T02:08:02.215Z,0
2016-12-03T02:09:02.180Z,0
2016-12-03T02:10:02.171Z,0
2016-12-03T02:11:01.830Z,0
2016-12-03T02:12:02.129Z,0
2016-12-03T02:13:01.812Z,0
2016-12-03T02:14:02.084Z,0
2016-12-03T02:15:01.751Z,0
2016-12-03T02:16:02.053Z,0
2016-12-03T02:17:02.040Z,0
2016-12-03T02:18:02.022Z,0
2016-12-03T02:19:01.736Z,0
2016-12-03T02:20:01.989Z,0
2016-12-03T02:21:01.970Z,0
2016-12-03T02:22:01.636Z,0
2016-12-03T02:23:01.933Z,0
2016-12-03T02:24:01.920Z,0
2016-12-03T02:25:01.577Z,0
2016-12-03T02:26:01.565Z,0
2016-12-03T02:27:02.113Z,0
2016-12-03T02:28:01.541Z,0
2016-12-03T02:29:01.836Z,0
2016-12-03T02:30:00.869Z,0
2016-12-03T02:31:01.515Z,0
2016-12-03T02:32:01.782Z,0
2016-12-03T02:33:01.759Z,0
2016-12-03T02:34:01.435Z,0
2016-12-03T02:35:01.410Z,0
2016-12-03T02:36:01.723Z,0
2016-12-03T02:37:01.704Z,0
2016-12-03T02:38:01.371Z,0
2016-12-03T02:39:01.709Z,0
2016-12-03T02:40:01.648Z,0
2016-12-03T02:41:01.627Z,0
2016-12-03T02:42:01.860Z,0
2016-12-03T02:43:01.273Z,0
2016-12-03T02:44:01.577Z,0
2016-12-03T02:45:00.924Z,0
2016-12-03T02:46:01.541Z,0
2016-12-03T02:47:01.216Z,0
2016-12-03T02:48:01.515Z,0
2016-12-03T02:49:01.174Z,0
2016-12-03T02:50:01.484Z,0
2016-12-03T02:51:01.459Z,0
2016-12-03T02:52:01.454Z,0
2016-12-03T02:53:01.427Z,0
2016-12-03T02:54:01.409Z,0
2016-12-03T02:55:01.072Z,0
2016-12-03T02:56:01.095Z,0
2016-12-03T02:57:01.104Z,0
2016-12-03T02:58:01.341Z,0
2016-12-03T02:59:01.361Z,0
2016-12-03T03:00:00.989Z,0
2016-12-03T03:01:01.287Z,0
2016-12-03T03:02:00.955Z,0
2016-12-03T03:03:00.936Z,0
2016-12-03T03:04:00.603Z,0
2016-12-03T03:05:00.594Z,0
2016-12-03T03:06:01.210Z,0
2016-12-03T03:07:01.183Z,0
2016-12-03T03:08:00.540Z,0
2016-12-03T03:09:00.831Z,0
2016-12-03T03:10:01.189Z,0
2016-12-03T03:11:01.111Z,0
2016-12-03T03:12:01.091Z,0
2016-12-03T03:13:01.078Z,0
2016-12-03T03:14:00.428Z,0
2016-12-03T03:15:00.731Z,0
2016-12-03T03:16:01.031Z,0
2016-12-03T03:17:00.694Z,0
2016-12-03T03:18:00.682Z,0
2016-12-03T03:19:00.656Z,0
2016-12-03T03:20:00.967Z,0
2016-12-03T03:21:00.946Z,0
2016-12-03T03:22:00.611Z,0
2016-12-03T03:23:00.910Z,0
2016-12-03T03:24:00.896Z,0
2016-12-03T03:25:00.559Z,0
2016-12-03T03:26:00.544Z,0
2016-12-03T03:27:00.839Z,0
2016-12-03T03:28:00.506Z,0
2016-12-03T03:29:01.020Z,0
2016-12-03T03:30:00.717Z,0
2016-12-03T03:31:00.462Z,0
2016-12-03T03:32:00.749Z,0
2016-12-03T03:33:00.427Z,0
2016-12-03T03:34:00.960Z,0
2016-12-03T03:35:00.402Z,0
2016-12-03T03:36:00.708Z,0
2016-12-03T03:37:00.354Z,0
2016-12-03T03:38:00.715Z,0
2016-12-03T03:39:00.632Z,0
2016-12-03T03:40:00.671Z,0
2016-12-03T03:41:00.602Z,0
2016-12-03T03:42:00.356Z,0
2016-12-03T03:43:00.567Z,0
2016-12-03T03:44:00.550Z,0
2016-12-03T03:45:00.535Z,0
2016-12-03T03:46:00.517Z,0
2016-12-03T03:47:00.421Z,0
2016-12-03T03:48:00.487Z,0
2016-12-03T03:49:00.512Z,0
2016-12-03T03:50:00.326Z,0
2016-12-03T03:51:00.437Z,0
2016-12-03T03:52:00.099Z,0
2016-12-03T03:53:00.078Z,0
2016-12-03T03:54:00.384Z,0
2016-12-03T03:55:00.361Z,0
2016-12-03T03:56:00.340Z,0
2016-12-03T03:57:00.009Z,0
2016-12-03T03:58:00.309Z,0
2016-12-03T03:58:59.971Z,0
2016-12-03T03:59:59.649Z,0
2016-12-03T04:00:59.621Z,0
2016-12-03T04:01:59.922Z,0
2016-12-03T04:02:59.904Z,0
2016-12-03T04:04:00.203Z,0
2016-12-03T04:04:59.869Z,0
2016-12-03T04:05:59.862Z,0
2016-12-03T04:06:59.835Z,0
2016-12-03T04:08:00.133Z,0
2016-12-03T04:08:59.805Z,0
2016-12-03T04:09:59.466Z,0
2016-12-03T04:10:59.447Z,0
2016-12-03T04:12:00.082Z,0
2016-12-03T04:13:00.043Z,0
2016-12-03T04:14:00.025Z,0
2016-12-03T04:14:59.688Z,0
2016-12-03T04:15:59.993Z,0
2016-12-03T04:16:59.985Z,0
2016-12-03T04:17:59.955Z,0
2016-12-03T04:18:59.943Z,0
2016-12-03T04:19:59.609Z,0
2016-12-03T04:20:59.596Z,0
2016-12-03T04:21:59.945Z,0
2016-12-03T04:22:59.875Z,0
2016-12-03T04:23:59.856Z,0
2016-12-03T04:24:59.837Z,0
2016-12-03T04:25:59.820Z,0
2016-12-03T04:26:59.488Z,0
2016-12-03T04:27:59.513Z,0
2016-12-03T04:28:59.770Z,0
2016-12-03T04:29:59.432Z,0
2016-12-03T04:30:59.413Z,0
2016-12-03T04:31:59.714Z,0
2016-12-03T04:32:59.941Z,0
2016-12-03T04:33:59.677Z,0
2016-12-03T04:34:59.663Z,0
2016-12-03T04:35:59.649Z,0
2016-12-03T04:36:59.627Z,0
2016-12-03T04:37:59.612Z,0
2016-12-03T04:38:59.599Z,0
2016-12-03T04:39:59.480Z,0
2016-12-03T04:40:59.243Z,0
2016-12-03T04:41:58.911Z,0
2016-12-03T04:42:59.203Z,0
2016-12-03T04:43:59.501Z,0
2016-12-03T04:44:59.174Z,0
2016-12-03T04:45:59.715Z,0
2016-12-03T04:46:59.456Z,0
2016-12-03T04:47:59.443Z,0
2016-12-03T04:48:59.465Z,0
2016-12-03T04:49:59.410Z,0
2016-12-03T04:50:59.383Z,0
2016-12-03T04:51:59.370Z,0
2016-12-03T04:52:59.030Z,0
2016-12-03T04:53:59.545Z,0
2016-12-03T04:54:59.042Z,0
2016-12-03T04:55:58.668Z,0
2016-12-03T04:56:58.966Z,0
2016-12-03T04:57:58.950Z,0
2016-12-03T04:58:58.929Z,0
2016-12-03T04:59:58.916Z,0
2016-12-03T05:00:58.901Z,0
2016-12-03T05:01:59.411Z,0
2016-12-03T05:02:58.866Z,0
2016-12-03T05:03:58.533Z,0
2016-12-03T05:04:58.826Z,0
2016-12-03T05:05:58.809Z,0
2016-12-03T05:06:59.117Z,0
2016-12-03T05:07:59.096Z,0
2016-12-03T05:08:59.085Z,0
2016-12-03T05:09:59.664Z,0
2016-12-03T05:10:58.938Z,0
2016-12-03T05:11:59.028Z,0
2016-12-03T05:12:58.933Z,0
2016-12-03T05:13:58.351Z,0
2016-12-03T05:14:58.972Z,0
2016-12-03T05:15:59.019Z,0
2016-12-03T05:16:58.972Z,0
2016-12-03T05:17:58.918Z,0
2016-12-03T05:18:58.905Z,0
2016-12-03T05:19:58.575Z,0
2016-12-03T05:20:58.861Z,0
2016-12-03T05:21:58.850Z,0
2016-12-03T05:22:58.884Z,0
2016-12-03T05:23:58.813Z,0
2016-12-03T05:24:58.800Z,0
2016-12-03T05:25:58.783Z,0
2016-12-03T05:26:58.763Z,0
2016-12-03T05:27:58.756Z,0
2016-12-03T05:28:58.947Z,0
2016-12-03T05:29:58.397Z,0
2016-12-03T05:30:58.378Z,0
2016-12-03T05:31:58.693Z,0
2016-12-03T05:32:58.666Z,0
2016-12-03T05:33:58.643Z,0
2016-12-03T05:34:58.632Z,0
2016-12-03T05:35:58.607Z,0
2016-12-03T05:36:58.601Z,0
2016-12-03T05:37:58.576Z,0
2016-12-03T05:38:58.243Z,0
2016-12-03T05:39:58.551Z,0
2016-12-03T05:40:58.520Z,0
2016-12-03T05:41:58.707Z,0
2016-12-03T05:42:58.496Z,0
2016-12-03T05:43:58.472Z,0
2016-12-03T05:44:57.833Z,0
2016-12-03T05:45:58.438Z,0
2016-12-03T05:46:58.427Z,0
2016-12-03T05:47:58.096Z,0
2016-12-03T05:48:58.402Z,0
2016-12-03T05:49:58.373Z,0
2016-12-03T05:50:58.356Z,0
2016-12-03T05:51:58.026Z,0
2016-12-03T05:52:58.323Z,0
2016-12-03T05:53:57.988Z,0
2016-12-03T05:54:57.975Z,0
2016-12-03T05:55:58.496Z,0
2016-12-03T05:56:58.296Z,0
2016-12-03T05:57:58.247Z,0
2016-12-03T05:58:58.235Z,0
2016-12-03T05:59:58.205Z,0
2016-12-03T06:00:57.553Z,0
2016-12-03T06:01:58.207Z,0
2016-12-03T06:02:58.189Z,0
2016-12-03T06:03:58.136Z,0
2016-12-03T06:04:58.124Z,0
2016-12-03T06:05:58.124Z,0
2016-12-03T06:06:58.083Z,0
2016-12-03T06:07:58.071Z,0
2016-12-03T06:08:58.062Z,0
2016-12-03T06:09:58.039Z,0
2016-12-03T06:10:58.244Z,0
2016-12-03T06:11:58.010Z,0
2016-12-03T06:12:57.988Z,0
2016-12-03T06:13:57.968Z,0
2016-12-03T06:14:57.955Z,0
2016-12-03T06:15:57.951Z,0
2016-12-03T06:16:57.921Z,0
2016-12-03T06:17:57.906Z,0
2016-12-03T06:18:57.252Z,0
2016-12-03T06:19:57.553Z,0
2016-12-03T06:20:57.856Z,0
2016-12-03T06:21:57.847Z,0
2016-12-03T06:22:57.819Z,0
2016-12-03T06:23:57.804Z,0
2016-12-03T06:24:57.473Z,0
2016-12-03T06:25:57.676Z,0
2016-12-03T06:26:57.753Z,0
2016-12-03T06:27:57.451Z,0
2016-12-03T06:28:57.725Z,0
2016-12-03T06:29:57.701Z,0
2016-12-03T06:30:57.410Z,0
2016-12-03T06:31:57.665Z,0
2016-12-03T06:32:57.650Z,0
2016-12-03T06:33:57.318Z,0
2016-12-03T06:34:57.619Z,0
2016-12-03T06:35:57.623Z,0
2016-12-03T06:36:57.589Z,0
2016-12-03T06:37:57.570Z,0
2016-12-03T06:38:57.561Z,0
2016-12-03T06:39:57.773Z,0
2016-12-03T06:40:57.520Z,0
2016-12-03T06:41:57.215Z,0
2016-12-03T06:42:57.490Z,0
2016-12-03T06:43:57.475Z,0
2016-12-03T06:44:57.488Z,0
2016-12-03T06:45:56.813Z,0
2016-12-03T06:46:57.416Z,0
2016-12-03T06:47:57.408Z,0
2016-12-03T06:48:57.399Z,0
2016-12-03T06:49:57.058Z,0
2016-12-03T06:50:57.036Z,0
2016-12-03T06:51:56.710Z,0
2016-12-03T06:52:57.327Z,0
2016-12-03T06:53:56.676Z,0
2016-12-03T06:54:56.974Z,0
2016-12-03T06:55:57.270Z,0
2016-12-03T06:56:57.297Z,0
2016-12-03T06:57:57.242Z,0
2016-12-03T06:58:56.914Z,0
2016-12-03T06:59:57.213Z,0
2016-12-03T07:00:57.198Z,0
2016-12-03T07:01:56.871Z,0
2016-12-03T07:02:57.161Z,0
2016-12-03T07:03:57.170Z,0
2016-12-03T07:04:56.813Z,0
2016-12-03T07:05:57.333Z,0
2016-12-03T07:06:57.095Z,0
2016-12-03T07:07:57.086Z,0
2016-12-03T07:08:57.071Z,0
2016-12-03T07:09:56.730Z,0
2016-12-03T07:10:56.743Z,0
2016-12-03T07:11:57.028Z,0
2016-12-03T07:12:56.686Z,0
2016-12-03T07:13:56.664Z,0
2016-12-03T07:14:56.974Z,0
2016-12-03T07:15:56.951Z,0
2016-12-03T07:16:56.928Z,0
2016-12-03T07:17:56.925Z,0
2016-12-03T07:18:56.907Z,0
2016-12-03T07:19:56.881Z,0
2016-12-03T07:20:56.872Z,0
2016-12-03T07:21:56.544Z,0
2016-12-03T07:22:56.521Z,0
2016-12-03T07:23:56.820Z,0
2016-12-03T07:24:56.803Z,0
2016-12-03T07:25:56.796Z,0
2016-12-03T07:26:56.137Z,0
2016-12-03T07:27:56.436Z,0
2016-12-03T07:28:56.420Z,0
2016-12-03T07:29:56.720Z,0
2016-12-03T07:30:56.388Z,0
2016-12-03T07:31:56.380Z,0
2016-12-03T07:32:56.670Z,0
2016-12-03T07:33:56.663Z,0
2016-12-03T07:34:56.648Z,0
2016-12-03T07:35:56.621Z,0
2016-12-03T07:36:56.610Z,0
2016-12-03T07:37:56.333Z,0
2016-12-03T07:38:56.578Z,0
2016-12-03T07:39:56.242Z,4
2016-12-03T07:40:56.537Z,4
2016-12-03T07:41:55.900Z,4
2016-12-03T07:42:56.509Z,4
2016-12-03T07:43:56.492Z,0
2016-12-03T07:44:56.479Z,0
2016-12-03T07:45:56.461Z,0
2016-12-03T07:46:56.440Z,0
2016-12-03T07:47:56.427Z,0
2016-12-03T07:48:55.784Z,0
2016-12-03T07:49:56.397Z,0
2016-12-03T07:50:56.402Z,0
2016-12-03T07:51:56.363Z,0
2016-12-03T07:52:56.357Z,0
2016-12-03T07:53:56.330Z,4
2016-12-03T07:54:56.005Z,4
2016-12-03T07:55:55.984Z,4
2016-12-03T07:56:55.647Z,4
2016-12-03T07:57:56.264Z,0
2016-12-03T07:58:56.248Z,0
2016-12-03T07:59:56.235Z,4
2016-12-03T08:00:56.212Z,4
2016-12-03T08:01:56.199Z,4
2016-12-03T08:02:56.186Z,4
2016-12-03T08:03:55.850Z,0
2016-12-03T08:04:56.151Z,0
2016-12-03T08:05:55.858Z,0
2016-12-03T08:06:56.119Z,0
2016-12-03T08:07:56.112Z,0
2016-12-03T08:08:55.768Z,4
2016-12-03T08:09:55.764Z,4
2016-12-03T08:10:56.055Z,4
2016-12-03T08:11:56.044Z,4
2016-12-03T08:12:55.740Z,4
2016-12-03T08:13:56.005Z,4
2016-12-03T08:14:55.671Z,4
2016-12-03T08:15:55.982Z,4
2016-12-03T08:16:55.873Z,4
2016-12-03T08:17:55.936Z,4
2016-12-03T08:18:55.649Z,4
2016-12-03T08:19:55.596Z,4
2016-12-03T08:20:55.899Z,4
2016-12-03T08:21:55.875Z,4
2016-12-03T08:22:55.867Z,4
2016-12-03T08:23:55.531Z,4
2016-12-03T08:24:55.832Z,4
2016-12-03T08:25:55.807Z,4
2016-12-03T08:26:55.835Z,4
2016-12-03T08:27:55.782Z,4
2016-12-03T08:28:55.772Z,4
2016-12-03T08:29:55.440Z,4
2016-12-03T08:30:55.728Z,4
2016-12-03T08:31:55.079Z,4
2016-12-03T08:32:55.376Z,4
2016-12-03T08:33:55.735Z,4
2016-12-03T08:34:55.666Z,4
2016-12-03T08:35:55.667Z,4
2016-12-03T08:36:55.661Z,4
2016-12-03T08:37:55.307Z,4
2016-12-03T08:38:55.609Z,4
2016-12-03T08:39:55.264Z,4
2016-12-03T08:40:55.616Z,4
2016-12-03T08:41:55.556Z,4
2016-12-03T08:42:54.942Z,4
2016-12-03T08:43:55.522Z,4
2016-12-03T08:44:55.198Z,4
2016-12-03T08:45:55.485Z,4
2016-12-03T08:46:55.502Z,4
2016-12-03T08:47:55.455Z,4
2016-12-03T08:48:55.465Z,8
2016-12-03T08:49:55.115Z,8
2016-12-03T08:50:55.418Z,8
2016-12-03T08:51:55.393Z,8
2016-12-03T08:52:54.741Z,8
2016-12-03T08:53:55.053Z,8
2016-12-03T08:54:55.340Z,8
2016-12-03T08:55:55.354Z,4
2016-12-03T08:56:55.317Z,8
2016-12-03T08:57:54.986Z,8
2016-12-03T08:58:54.965Z,8
2016-12-03T08:59:54.951Z,8
2016-12-03T09:00:55.249Z,8
2016-12-03T09:01:54.915Z,8
2016-12-03T09:02:55.208Z,8
2016-12-03T09:03:54.885Z,8
2016-12-03T09:04:55.188Z,8
2016-12-03T09:05:55.164Z,8
2016-12-03T09:06:55.149Z,8
2016-12-03T09:07:55.136Z,8
2016-12-03T09:08:54.801Z,8
2016-12-03T09:09:54.784Z,8
2016-12-03T09:10:55.304Z,8
2016-12-03T09:11:54.763Z,8
2016-12-03T09:12:55.066Z,8
2016-12-03T09:13:54.723Z,8
2016-12-03T09:14:55.024Z,4
2016-12-03T09:15:54.694Z,8
2016-12-03T09:16:54.983Z,8
2016-12-03T09:17:54.656Z,4
2016-12-03T09:18:54.958Z,8
2016-12-03T09:19:54.938Z,8
2016-12-03T09:20:54.608Z,8
2016-12-03T09:21:54.586Z,8
2016-12-03T09:22:54.600Z,8
2016-12-03T09:23:54.591Z,8
2016-12-03T09:24:54.856Z,8
2016-12-03T09:25:54.852Z,8
2016-12-03T09:26:54.865Z,8
2016-12-03T09:27:54.810Z,8
2016-12-03T09:28:54.474Z,8
2016-12-03T09:29:54.999Z,8
2016-12-03T09:30:54.762Z,12
2016-12-03T09:31:54.431Z,12
2016-12-03T09:32:54.412Z,8
2016-12-03T09:33:54.714Z,8
2016-12-03T09:34:54.723Z,8
2016-12-03T09:35:54.364Z,12
2016-12-03T09:36:54.349Z,12
2016-12-03T09:37:54.646Z,8
2016-12-03T09:38:54.352Z,8
2016-12-03T09:39:54.615Z,8
2016-12-03T09:40:54.604Z,8
2016-12-03T09:41:54.594Z,8
2016-12-03T09:42:54.253Z,8
2016-12-03T09:43:53.931Z,8
2016-12-03T09:44:54.443Z,8
2016-12-03T09:45:54.540Z,8
2016-12-03T09:46:54.506Z,12
2016-12-03T09:47:54.207Z,12
2016-12-03T09:48:54.514Z,12
2016-12-03T09:49:54.706Z,8
2016-12-03T09:50:54.440Z,12
2016-12-03T09:51:54.110Z,12
2016-12-03T09:52:54.419Z,12
2016-12-03T09:53:54.406Z,12
2016-12-03T09:54:54.416Z,16
2016-12-03T09:55:53.727Z,12
2016-12-03T09:56:54.342Z,12
2016-12-03T09:57:54.019Z,32
2016-12-03T09:58:53.995Z,20
2016-12-03T09:59:54.303Z,92
2016-12-03T10:00:54.283Z,40
2016-12-03T10:01:54.263Z,24
2016-12-03T10:02:53.938Z,20
2016-12-03T10:03:53.933Z,16
2016-12-03T10:04:53.899Z,16
2016-12-03T10:05:54.200Z,16
2016-12-03T10:06:54.190Z,16
2016-12-03T10:07:54.198Z,16
2016-12-03T10:08:53.839Z,12
2016-12-03T10:09:54.141Z,12
2016-12-03T10:10:54.120Z,12
2016-12-03T10:11:54.095Z,12
2016-12-03T10:12:54.087Z,12
2016-12-03T10:13:54.069Z,12
2016-12-03T10:14:54.054Z,16
2016-12-03T10:15:54.042Z,16
2016-12-03T10:16:54.066Z,16
2016-12-03T10:17:53.377Z,16
2016-12-03T10:18:53.686Z,16
2016-12-03T10:19:54.031Z,12
2016-12-03T10:20:53.953Z,12
2016-12-03T10:21:53.627Z,12
2016-12-03T10:22:53.924Z,16
2016-12-03T10:23:53.921Z,12
2016-12-03T10:24:53.578Z,16
2016-12-03T10:25:53.876Z,12
2016-12-03T10:26:53.860Z,12
2016-12-03T10:27:53.530Z,12
2016-12-03T10:28:53.835Z,12
2016-12-03T10:29:53.819Z,12
2016-12-03T10:30:53.794Z,8
2016-12-03T10:31:53.800Z,8
2016-12-03T10:32:53.761Z,12
2016-12-03T10:33:53.431Z,12
2016-12-03T10:34:53.420Z,12
2016-12-03T10:35:53.717Z,12
2016-12-03T10:36:53.707Z,12
2016-12-03T10:37:53.742Z,12
2016-12-03T10:38:53.881Z,12
2016-12-03T10:39:53.661Z,12
2016-12-03T10:40:53.644Z,12
2016-12-03T10:41:53.626Z,8
2016-12-03T10:42:53.289Z,8
2016-12-03T10:43:53.619Z,8
2016-12-03T10:44:53.578Z,12
2016-12-03T10:45:52.927Z,8
2016-12-03T10:46:53.545Z,8
2016-12-03T10:47:53.218Z,12
2016-12-03T10:48:53.195Z,12
2016-12-03T10:49:53.493Z,12
2016-12-03T10:50:53.476Z,12
2016-12-03T10:51:53.465Z,12
2016-12-03T10:52:53.132Z,12
2016-12-03T10:53:53.655Z,12
2016-12-03T10:54:53.411Z,12
2016-12-03T10:55:53.083Z,12
2016-12-03T10:56:53.068Z,16
2016-12-03T10:57:53.361Z,12
2016-12-03T10:58:53.348Z,16
2016-12-03T10:59:53.332Z,16
2016-12-03T11:00:53.321Z,16
2016-12-03T11:01:53.307Z,20
2016-12-03T11:02:52.970Z,16
2016-12-03T11:03:53.297Z,20
2016-12-03T11:04:52.943Z,20
2016-12-03T11:05:52.957Z,20
2016-12-03T11:06:52.936Z,20
2016-12-03T11:07:53.214Z,20
2016-12-03T11:08:52.876Z,16
2016-12-03T11:09:53.173Z,20
2016-12-03T11:10:53.197Z,16
2016-12-03T11:11:53.382Z,12
2016-12-03T11:12:53.125Z,16
2016-12-03T11:13:53.105Z,16
2016-12-03T11:14:53.099Z,12
2016-12-03T11:15:52.761Z,12
2016-12-03T11:16:52.459Z,12
2016-12-03T11:17:53.050Z,16
2016-12-03T11:18:53.029Z,16
2016-12-03T11:19:53.064Z,16
2016-12-03T11:20:52.996Z,16
2016-12-03T11:21:52.982Z,16
2016-12-03T11:22:53.201Z,16
2016-12-03T11:23:52.635Z,16
2016-12-03T11:24:52.297Z,16
2016-12-03T11:25:52.600Z,16
2016-12-03T11:26:52.905Z,16
2016-12-03T11:27:52.882Z,16
2016-12-03T11:28:52.237Z,20
2016-12-03T11:29:52.852Z,16
2016-12-03T11:30:52.837Z,20
2016-12-03T11:31:52.508Z,20
2016-12-03T11:32:52.808Z,20
2016-12-03T11:33:52.795Z,20
2016-12-03T11:34:53.026Z,20
2016-12-03T11:35:52.755Z,20
2016-12-03T11:36:52.744Z,20
2016-12-03T11:37:52.743Z,24
2016-12-03T11:38:52.719Z,24
2016-12-03T11:39:52.377Z,24
2016-12-03T11:40:52.371Z,20
2016-12-03T11:41:52.695Z,16
2016-12-03T11:42:52.653Z,20
2016-12-03T11:43:52.325Z,16
2016-12-03T11:44:52.298Z,16
2016-12-03T11:45:52.808Z,16
2016-12-03T11:46:52.585Z,16
2016-12-03T11:47:52.593Z,20
2016-12-03T11:48:52.800Z,20
2016-12-03T11:49:52.566Z,20
2016-12-03T11:50:51.889Z,20
2016-12-03T11:51:52.507Z,20
2016-12-03T11:52:52.488Z,20
2016-12-03T11:53:51.847Z,20
2016-12-03T11:54:52.140Z,24
2016-12-03T11:55:52.485Z,24
2016-12-03T11:56:52.434Z,28
2016-12-03T11:57:52.416Z,56
2016-12-03T11:58:52.635Z,60
2016-12-03T11:59:52.394Z,56
2016-12-03T12:00:52.360Z,52
2016-12-03T12:01:52.036Z,60
2016-12-03T12:02:52.328Z,56
2016-12-03T12:03:52.001Z,60
2016-12-03T12:04:52.325Z,60
2016-12-03T12:05:51.966Z,60
2016-12-03T12:06:52.266Z,60
2016-12-03T12:07:51.941Z,56
2016-12-03T12:08:51.925Z,52
2016-12-03T12:09:51.907Z,52
2016-12-03T12:10:52.206Z,52
2016-12-03T12:11:52.188Z,48
2016-12-03T12:12:52.177Z,48
2016-12-03T12:13:51.840Z,44
2016-12-03T12:14:52.143Z,40
2016-12-03T12:15:52.132Z,40
2016-12-03T12:16:52.117Z,40
2016-12-03T12:17:52.096Z,44
2016-12-03T12:18:52.076Z,40
2016-12-03T12:19:51.747Z,40
2016-12-03T12:20:52.050Z,40
2016-12-03T12:21:51.401Z,40
2016-12-03T12:22:52.038Z,36
2016-12-03T12:23:52.003Z,36
2016-12-03T12:24:51.667Z,44
2016-12-03T12:25:51.656Z,44
2016-12-03T12:26:51.634Z,48
2016-12-03T12:27:51.942Z,52
2016-12-03T12:28:51.927Z,52
2016-12-03T12:29:51.643Z,52
2016-12-03T12:30:51.572Z,60
2016-12-03T12:31:51.872Z,64
2016-12-03T12:32:51.554Z,64
2016-12-03T12:33:51.893Z,64
2016-12-03T12:34:51.828Z,60
2016-12-03T12:35:51.809Z,52
2016-12-03T12:36:52.076Z,44
2016-12-03T12:37:51.779Z,44
2016-12-03T12:38:51.762Z,40
2016-12-03T12:39:51.117Z,40
2016-12-03T12:40:51.131Z,36
2016-12-03T12:41:51.714Z,32
2016-12-03T12:42:51.387Z,24
2016-12-03T12:43:51.052Z,24
2016-12-03T12:44:51.355Z,20
2016-12-03T12:45:51.655Z,24
2016-12-03T12:46:51.638Z,24
2016-12-03T12:47:51.627Z,20
2016-12-03T12:48:51.608Z,20
2016-12-03T12:49:51.587Z,20
2016-12-03T12:50:51.575Z,16
2016-12-03T12:51:51.250Z,12
2016-12-03T12:52:51.248Z,12
2016-12-03T12:53:51.525Z,16
2016-12-03T12:54:50.576Z,12
2016-12-03T12:55:51.178Z,12
2016-12-03T12:56:51.475Z,12
2016-12-03T12:57:51.454Z,12
2016-12-03T12:58:50.858Z,12
2016-12-03T12:59:51.105Z,12
2016-12-03T13:00:51.640Z,12
2016-12-03T13:01:51.388Z,12
2016-12-03T13:02:51.057Z,12
2016-12-03T13:03:51.361Z,12
2016-12-03T13:04:51.020Z,12
2016-12-03T13:05:51.545Z,16
2016-12-03T13:06:51.308Z,12
2016-12-03T13:07:50.979Z,12
2016-12-03T13:08:51.493Z,12
2016-12-03T13:09:51.260Z,12
2016-12-03T13:10:51.240Z,12
2016-12-03T13:11:50.912Z,12
2016-12-03T13:12:51.216Z,8
2016-12-03T13:13:51.199Z,12
2016-12-03T13:14:50.868Z,12
2016-12-03T13:15:51.164Z,12
2016-12-03T13:16:50.833Z,12
2016-12-03T13:17:51.134Z,12
2016-12-03T13:18:50.792Z,12
2016-12-03T13:19:51.105Z,12
2016-12-03T13:20:51.078Z,12
2016-12-03T13:21:51.084Z,12
2016-12-03T13:22:50.731Z,12
2016-12-03T13:23:50.710Z,12
2016-12-03T13:24:51.022Z,12
2016-12-03T13:25:50.684Z,12
2016-12-03T13:26:50.983Z,12
2016-12-03T13:27:50.647Z,12
2016-12-03T13:28:50.944Z,12
2016-12-03T13:29:50.932Z,12
2016-12-03T13:30:50.918Z,8
2016-12-03T13:31:50.593Z,8
2016-12-03T13:32:50.566Z,8
2016-12-03T13:33:50.865Z,8
2016-12-03T13:34:50.541Z,8
2016-12-03T13:35:50.836Z,8
2016-12-03T13:36:50.813Z,12
2016-12-03T13:37:50.804Z,8
2016-12-03T13:38:50.782Z,12
2016-12-03T13:39:50.765Z,12
2016-12-03T13:40:50.757Z,12
2016-12-03T13:41:50.420Z,12
2016-12-03T13:42:50.095Z,12
2016-12-03T13:43:50.391Z,12
2016-12-03T13:44:50.686Z,12
2016-12-03T13:45:50.673Z,12
2016-12-03T13:46:50.892Z,12
2016-12-03T13:47:50.316Z,12
2016-12-03T13:48:50.617Z,12
2016-12-03T13:49:50.636Z,8
2016-12-03T13:50:50.656Z,8
2016-12-03T13:51:50.570Z,8
2016-12-03T13:52:50.563Z,8
2016-12-03T13:53:49.912Z,8
2016-12-03T13:54:50.570Z,8
2016-12-03T13:55:50.511Z,8
2016-12-03T13:56:50.485Z,8
2016-12-03T13:57:50.158Z,8
2016-12-03T13:58:50.685Z,8
2016-12-03T13:59:50.444Z,8
2016-12-03T14:00:50.418Z,8
2016-12-03T14:01:50.403Z,12
2016-12-03T14:02:50.394Z,8
2016-12-03T14:03:50.401Z,8
2016-12-03T14:04:50.417Z,8
2016-12-03T14:05:50.028Z,8
2016-12-03T14:06:50.011Z,8
2016-12-03T14:07:49.993Z,8
2016-12-03T14:08:50.332Z,8
2016-12-03T14:09:50.308Z,8
2016-12-03T14:10:50.493Z,8
2016-12-03T14:11:49.928Z,8
2016-12-03T14:12:50.229Z,8
2016-12-03T14:13:50.207Z,8
2016-12-03T14:14:50.196Z,4
2016-12-03T14:15:50.182Z,4
2016-12-03T14:16:50.168Z,4
2016-12-03T14:17:50.149Z,4
2016-12-03T14:18:50.133Z,8
2016-12-03T14:19:50.111Z,8
2016-12-03T14:20:50.091Z,8
2016-12-03T14:21:50.083Z,8
2016-12-03T14:22:49.744Z,8
2016-12-03T14:23:49.411Z,8
2016-12-03T14:24:49.707Z,4
2016-12-03T14:25:49.747Z,4
2016-12-03T14:26:49.367Z,4
2016-12-03T14:27:49.672Z,4
2016-12-03T14:28:49.648Z,4
2016-12-03T14:29:49.635Z,4
2016-12-03T14:30:49.945Z,4
2016-12-03T14:31:49.916Z,4
2016-12-03T14:32:49.899Z,4
2016-12-03T14:33:49.882Z,4
2016-12-03T14:34:49.875Z,4
2016-12-03T14:35:49.530Z,4
2016-12-03T14:36:49.837Z,8
2016-12-03T14:37:49.858Z,8